createdAt,value
2022-09-06T00:01:14.112Z,13.40
2022-09-06T00:03:41.770Z,13.40
2022-09-06T00:06:16.605Z,13.40
2022-09-06T00:08:47.776Z,13.40
2022-09-06T00:11:16.169Z,13.30
2022-09-06T00:13:43.813Z,13.30
2022-09-06T00:16:25.368Z,13.30
2022-09-06T00:18:58.382Z,13.20
2022-09-06T00:21:28.531Z,13.20
2022-09-06T00:23:55.815Z,13.20
2022-09-06T00:26:27.826Z,13.20
2022-09-06T00:28:54.956Z,13.10
2022-09-06T00:31:26.594Z,13.20
2022-09-06T00:33:54.240Z,13.10
2022-09-06T00:36:22.261Z,13.10
2022-09-06T00:38:51.850Z,13.10
2022-09-06T00:41:19.756Z,13.00
2022-09-06T00:43:49.126Z,13.00
2022-09-06T00:46:21.023Z,13.00
2022-09-06T00:48:53.394Z,12.90
2022-09-06T00:51:21.095Z,12.90
2022-09-06T00:53:49.298Z,12.90
2022-09-06T00:56:18.953Z,12.80
2022-09-06T00:58:51.115Z,12.80
2022-09-06T01:01:20.970Z,12.80
2022-09-06T01:03:49.152Z,12.80
2022-09-06T01:06:46.728Z,12.70
2022-09-06T01:09:22.994Z,12.70
2022-09-06T01:12:06.887Z,12.70
2022-09-06T01:14:41.412Z,12.70
2022-09-06T01:17:35.136Z,12.60
2022-09-06T01:20:31.135Z,12.60
2022-09-06T01:23:23.126Z,12.60
2022-09-06T01:25:56.389Z,12.50
2022-09-06T01:28:27.182Z,12.50
2022-09-06T01:31:03.037Z,12.40
2022-09-06T01:33:42.451Z,12.50
2022-09-06T01:36:15.156Z,12.40
2022-09-06T01:38:44.630Z,12.40
2022-09-06T01:41:12.258Z,12.40
2022-09-06T01:43:43.889Z,12.40
2022-09-06T01:46:27.325Z,12.40
2022-09-06T01:49:26.030Z,12.40
2022-09-06T01:52:24.989Z,12.30
2022-09-06T01:54:55.394Z,12.30
2022-09-06T01:57:45.686Z,12.30
2022-09-06T02:00:18.227Z,12.20
2022-09-06T02:03:07.716Z,12.20
2022-09-06T02:05:51.105Z,12.20
2022-09-06T02:08:48.414Z,12.10
2022-09-06T02:11:18.799Z,12.10
2022-09-06T02:13:58.744Z,12.00
2022-09-06T02:16:30.094Z,12.00
2022-09-06T02:19:04.583Z,12.00
2022-09-06T02:21:38.536Z,12.00
2022-09-06T02:24:13.096Z,12.00
2022-09-06T02:26:45.040Z,12.00
2022-09-06T02:29:15.294Z,12.00
2022-09-06T02:31:51.033Z,12.00
2022-09-06T02:34:19.926Z,12.00
2022-09-06T02:36:50.090Z,11.90
2022-09-06T02:39:19.438Z,11.90
2022-09-06T02:41:47.986Z,11.90
2022-09-06T02:44:18.550Z,11.90
2022-09-06T02:46:47.894Z,11.90
2022-09-06T02:49:15.034Z,11.80
2022-09-06T02:51:42.638Z,11.80
2022-09-06T02:54:09.815Z,11.80
2022-09-06T02:56:39.447Z,11.80
2022-09-06T02:59:06.876Z,11.80
2022-09-06T03:01:36.811Z,11.80
2022-09-06T03:04:08.862Z,11.80
2022-09-06T03:06:36.450Z,11.70
2022-09-06T03:09:10.404Z,11.70
2022-09-06T03:11:38.210Z,11.80
2022-09-06T03:14:05.362Z,11.80
2022-09-06T03:16:38.527Z,11.70
2022-09-06T03:19:06.037Z,11.70
2022-09-06T03:21:35.523Z,11.70
2022-09-06T03:24:02.877Z,11.70
2022-09-06T03:26:34.634Z,11.70
2022-09-06T03:29:01.809Z,11.70
2022-09-06T03:31:29.163Z,11.70
2022-09-06T03:33:56.649Z,11.50
2022-09-06T03:36:23.730Z,11.50
2022-09-06T03:38:54.127Z,11.50
2022-09-06T03:41:23.675Z,11.50
2022-09-06T03:43:50.860Z,11.50
2022-09-06T03:46:21.018Z,11.50
2022-09-06T03:48:48.610Z,11.40
2022-09-06T03:51:21.047Z,11.40
2022-09-06T03:53:48.641Z,11.40
2022-09-06T03:56:15.941Z,11.40
2022-09-06T03:58:45.311Z,11.40
2022-09-06T04:01:17.925Z,11.40
2022-09-06T04:03:50.533Z,11.40
2022-09-06T04:06:20.425Z,11.40
2022-09-06T04:08:47.791Z,11.30
2022-09-06T04:11:17.289Z,11.40
2022-09-06T04:13:47.099Z,11.40
2022-09-06T04:16:17.656Z,11.40
2022-09-06T04:18:44.966Z,11.40
2022-09-06T04:21:12.155Z,11.40
2022-09-06T04:23:40.150Z,11.40
2022-09-06T04:26:09.848Z,11.40
2022-09-06T04:28:39.380Z,11.40
2022-09-06T04:31:06.783Z,11.40
2022-09-06T04:33:35.554Z,11.40
2022-09-06T04:36:10.429Z,11.40
2022-09-06T04:38:39.969Z,11.40
2022-09-06T04:41:08.248Z,11.40
2022-09-06T04:43:42.674Z,11.40
2022-09-06T04:46:25.549Z,11.40
2022-09-06T04:48:54.522Z,11.40
2022-09-06T04:51:22.541Z,11.40
2022-09-06T04:53:52.410Z,11.40
2022-09-06T04:56:24.170Z,11.50
2022-09-06T04:58:56.199Z,11.50
2022-09-06T05:01:26.398Z,11.50
2022-09-06T05:03:56.703Z,11.60
2022-09-06T05:06:25.395Z,11.60
2022-09-06T05:08:52.674Z,11.60
2022-09-06T05:11:20.086Z,11.70
2022-09-06T05:13:47.771Z,11.70
2022-09-06T05:16:17.799Z,11.80
2022-09-06T05:18:47.374Z,11.80
2022-09-06T05:21:14.741Z,11.90
2022-09-06T05:23:44.657Z,12.00
2022-09-06T05:26:14.402Z,12.00
2022-09-06T05:28:41.803Z,12.00
2022-09-06T05:31:22.554Z,12.10
2022-09-06T05:33:53.373Z,12.20
2022-09-06T05:36:23.255Z,12.20
2022-09-06T05:38:58.267Z,12.20
2022-09-06T05:41:26.814Z,12.30
2022-09-06T05:43:56.757Z,12.30
2022-09-06T05:46:23.926Z,12.40
2022-09-06T05:49:01.174Z,12.40
2022-09-06T05:51:28.470Z,12.40
2022-09-06T05:53:55.894Z,12.50
2022-09-06T05:56:28.459Z,12.60
2022-09-06T05:59:00.386Z,12.70
2022-09-06T06:01:30.706Z,12.70
2022-09-06T06:04:00.512Z,12.80
2022-09-06T06:06:30.798Z,12.90
2022-09-06T06:09:00.578Z,13.00
2022-09-06T06:11:28.075Z,13.00
2022-09-06T06:13:55.385Z,13.00
2022-09-06T06:16:23.518Z,13.10
2022-09-06T06:18:52.626Z,13.30
2022-09-06T06:21:30.547Z,13.30
2022-09-06T06:24:06.899Z,13.40
2022-09-06T06:26:35.901Z,13.40
2022-09-06T06:29:09.431Z,13.50
2022-09-06T06:31:38.826Z,13.60
2022-09-06T06:34:07.071Z,13.70
2022-09-06T06:36:38.462Z,13.80
2022-09-06T06:39:08.567Z,13.90
2022-09-06T06:41:35.866Z,13.90
2022-09-06T06:44:23.205Z,13.90
2022-09-06T06:46:50.472Z,13.90
2022-09-06T06:49:19.830Z,13.90
2022-09-06T06:51:52.009Z,14.00
2022-09-06T06:54:23.851Z,14.10
2022-09-06T06:56:54.048Z,14.20
2022-09-06T06:59:21.482Z,14.20
2022-09-06T07:01:50.587Z,14.30
2022-09-06T07:04:18.120Z,14.40
2022-09-06T07:12:29.507Z,14.50
2022-09-06T07:14:59.269Z,14.60
2022-09-06T07:17:26.420Z,14.70
2022-09-06T07:22:41.127Z,14.80
2022-09-06T07:25:20.406Z,14.90
2022-09-06T07:28:01.585Z,14.90
2022-09-06T07:30:31.769Z,15.00
2022-09-06T07:33:02.218Z,15.10
2022-09-06T07:35:34.534Z,15.10
2022-09-06T07:38:02.313Z,15.20
2022-09-06T07:40:32.110Z,15.30
2022-09-06T07:43:00.429Z,15.30
2022-09-06T07:45:28.005Z,15.40
2022-09-06T07:48:01.179Z,15.40
2022-09-06T07:50:47.470Z,15.40
2022-09-06T07:53:22.973Z,15.50
2022-09-06T07:55:58.052Z,15.60
2022-09-06T07:58:31.203Z,15.60
2022-09-06T08:01:20.118Z,15.60
2022-09-06T08:03:48.100Z,15.70
2022-09-06T08:06:15.565Z,15.80
2022-09-06T08:08:58.784Z,15.80
2022-09-06T08:11:31.835Z,15.90
2022-09-06T08:14:00.934Z,15.90
2022-09-06T08:16:32.620Z,16.00
2022-09-06T08:19:04.797Z,16.10
2022-09-06T08:21:35.196Z,16.10
2022-09-06T08:24:06.818Z,16.10
2022-09-06T08:26:35.910Z,16.20
2022-09-06T08:29:06.844Z,16.20
2022-09-06T08:31:41.716Z,16.30
2022-09-06T08:34:15.951Z,16.40
2022-09-06T08:36:50.164Z,16.40
2022-09-06T08:39:17.735Z,16.50
2022-09-06T08:42:08.177Z,16.60
2022-09-06T08:44:57.021Z,16.60
2022-09-06T08:47:27.408Z,16.70
2022-09-06T08:50:08.766Z,16.80
2022-09-06T08:53:16.624Z,16.80
2022-09-06T08:56:04.402Z,16.90
2022-09-06T08:58:56.653Z,16.90
2022-09-06T09:01:32.606Z,17.10
2022-09-06T09:04:03.898Z,17.00
2022-09-06T09:06:32.835Z,17.10
2022-09-06T09:09:16.115Z,17.20
2022-09-06T09:11:47.658Z,17.20
2022-09-06T09:14:36.116Z,17.30
2022-09-06T09:17:22.987Z,17.30
2022-09-06T09:19:50.215Z,17.40
2022-09-06T09:22:19.921Z,17.50
2022-09-06T09:24:56.089Z,17.50
2022-09-06T09:27:27.278Z,17.60
2022-09-06T09:32:46.022Z,17.60
2022-09-06T09:35:33.917Z,17.70
2022-09-06T09:38:23.112Z,17.80
2022-09-06T09:41:00.297Z,17.80
2022-09-06T09:43:35.417Z,17.90
2022-09-06T09:46:23.041Z,17.90
2022-09-06T09:49:14.784Z,17.90
2022-09-06T09:52:07.589Z,18.00
2022-09-06T09:54:44.283Z,18.00
2022-09-06T09:57:17.863Z,18.00
2022-09-06T09:59:57.298Z,18.00
2022-09-06T10:02:31.935Z,18.10
2022-09-06T10:05:20.666Z,18.20
2022-09-06T10:07:57.778Z,18.20
2022-09-06T10:10:26.422Z,18.20
2022-09-06T10:13:19.331Z,18.30
2022-09-06T10:15:47.820Z,18.40
2022-09-06T10:18:37.531Z,18.40
2022-09-06T10:21:24.002Z,18.40
2022-09-06T10:24:29.417Z,18.50
2022-09-06T10:27:01.138Z,18.60
2022-09-06T10:29:47.931Z,18.70
2022-09-06T10:32:35.698Z,18.70
2022-09-06T10:35:14.649Z,18.70
2022-09-06T10:37:53.824Z,18.80
2022-09-06T10:41:16.370Z,18.80
2022-09-06T10:44:12.630Z,18.80
2022-09-06T10:46:44.077Z,18.90
2022-09-06T10:49:19.110Z,18.80
2022-09-06T10:51:54.316Z,18.80
2022-09-06T10:54:23.560Z,18.90
2022-09-06T11:00:16.805Z,18.90
2022-09-06T11:05:58.685Z,19.00
2022-09-06T11:11:40.359Z,19.10
2022-09-06T11:14:12.984Z,19.20
2022-09-06T11:16:59.179Z,19.30
2022-09-06T11:19:37.162Z,19.30
2022-09-06T11:22:36.116Z,19.30
2022-09-06T11:25:27.772Z,19.30
2022-09-06T11:28:00.425Z,19.30
2022-09-06T11:30:29.793Z,19.40
2022-09-06T11:33:25.016Z,19.40
2022-09-06T11:36:20.159Z,19.50
2022-09-06T11:38:58.491Z,19.60
2022-09-06T11:41:43.801Z,19.60
2022-09-06T11:44:11.603Z,19.70
2022-09-06T11:46:41.154Z,19.70
2022-09-06T11:49:31.818Z,19.70
2022-09-06T11:51:59.631Z,19.80
2022-09-06T11:54:48.374Z,19.90
2022-09-06T11:57:22.500Z,19.90
2022-09-06T12:00:01.881Z,20.00
2022-09-06T12:02:41.959Z,20.10
2022-09-06T12:05:15.223Z,20.10
2022-09-06T12:08:12.881Z,20.00
2022-09-06T12:10:56.085Z,20.00
2022-09-06T12:13:40.898Z,19.90
2022-09-06T12:16:09.714Z,19.90
2022-09-06T12:18:43.633Z,19.90
2022-09-06T12:21:37.678Z,20.00
2022-09-06T12:24:09.802Z,20.00
2022-09-06T12:27:16.075Z,20.10
2022-09-06T12:29:54.630Z,20.10
2022-09-06T12:32:28.417Z,20.10
2022-09-06T12:38:07.598Z,20.20
2022-09-06T12:40:43.797Z,20.30
2022-09-06T12:43:13.403Z,20.30
2022-09-06T12:45:45.309Z,20.40
2022-09-06T12:48:28.425Z,20.40
2022-09-06T12:51:19.468Z,20.30
2022-09-06T12:53:53.687Z,20.30
2022-09-06T12:56:23.017Z,20.20
2022-09-06T12:58:52.330Z,20.20
2022-09-06T13:01:29.018Z,20.20
2022-09-06T13:04:02.946Z,20.20
2022-09-06T13:06:34.116Z,20.20
2022-09-06T13:09:05.242Z,20.20
2022-09-06T13:11:39.734Z,20.10
2022-09-06T13:14:21.523Z,20.00
2022-09-06T13:16:51.667Z,20.10
2022-09-06T13:19:31.940Z,20.10
2022-09-06T13:22:03.850Z,20.30
2022-09-06T13:24:34.066Z,20.40
2022-09-06T13:27:01.496Z,20.40
2022-09-06T13:29:34.680Z,20.50
2022-09-06T13:32:03.456Z,20.50
2022-09-06T13:34:34.405Z,20.50
2022-09-06T13:37:08.984Z,20.50
2022-09-06T13:39:39.110Z,20.50
2022-09-06T13:42:26.415Z,20.50
2022-09-06T13:45:02.145Z,20.60
2022-09-06T13:47:29.918Z,20.60
2022-09-06T13:49:57.166Z,20.60
2022-09-06T13:52:25.180Z,20.70
2022-09-06T13:54:52.575Z,20.60
2022-09-06T13:57:24.213Z,20.60
2022-09-06T13:59:52.195Z,20.60
2022-09-06T14:02:20.949Z,20.60
2022-09-06T14:04:48.605Z,20.50
2022-09-06T14:07:20.803Z,20.50
2022-09-06T14:09:51.252Z,20.50
2022-09-06T14:12:18.584Z,20.60
2022-09-06T14:14:47.905Z,20.70
2022-09-06T14:17:15.277Z,20.80
2022-09-06T14:19:42.789Z,20.90
2022-09-06T14:22:09.884Z,20.90
2022-09-06T14:24:37.025Z,21.00
2022-09-06T14:27:07.032Z,21.10
2022-09-06T14:29:40.048Z,21.20
2022-09-06T14:32:07.470Z,21.00
2022-09-06T14:34:34.629Z,21.00
2022-09-06T14:37:01.800Z,21.00
2022-09-06T14:39:32.061Z,21.00
2022-09-06T14:41:59.489Z,21.00
2022-09-06T14:44:30.994Z,20.90
2022-09-06T14:47:00.973Z,20.90
2022-09-06T14:49:28.108Z,20.90
2022-09-06T14:51:56.610Z,20.90
2022-09-06T14:54:27.358Z,20.90
2022-09-06T14:56:59.218Z,20.90
2022-09-06T14:59:27.170Z,21.00
2022-09-06T15:01:57.426Z,21.00
2022-09-06T15:04:27.626Z,20.80
2022-09-06T15:06:57.049Z,20.70
2022-09-06T15:09:24.352Z,20.70
2022-09-06T15:11:55.406Z,20.60
2022-09-06T15:14:29.642Z,20.30
2022-09-06T15:16:59.834Z,20.30
2022-09-06T15:19:29.596Z,20.10
2022-09-06T15:21:59.923Z,19.90
2022-09-06T15:24:27.377Z,19.70
2022-09-06T15:26:57.145Z,19.60
2022-09-06T15:29:27.473Z,19.50
2022-09-06T15:31:55.205Z,19.30
2022-09-06T15:34:25.000Z,19.20
2022-09-06T15:36:56.490Z,19.10
2022-09-06T15:39:23.752Z,19.00
2022-09-06T15:41:52.842Z,18.90
2022-09-06T15:44:23.337Z,18.90
2022-09-06T15:46:58.102Z,18.90
2022-09-06T15:49:33.670Z,18.90
2022-09-06T15:52:06.691Z,18.90
2022-09-06T15:54:54.645Z,18.90
2022-09-06T15:57:21.998Z,18.80
2022-09-06T15:59:49.365Z,18.70
2022-09-06T16:02:16.883Z,18.70
2022-09-06T16:04:45.721Z,18.60
2022-09-06T16:07:15.336Z,18.60
2022-09-06T16:09:45.368Z,18.50
2022-09-06T16:12:15.535Z,18.50
2022-09-06T16:14:45.320Z,18.30
2022-09-06T16:17:22.366Z,18.30
2022-09-06T16:19:49.795Z,18.20
2022-09-06T16:22:17.391Z,18.10
2022-09-06T16:24:47.216Z,18.00
2022-09-06T16:27:19.140Z,17.90
2022-09-06T16:29:48.755Z,17.80
2022-09-06T16:32:17.282Z,17.70
2022-09-06T16:34:46.961Z,17.70
2022-09-06T16:37:19.193Z,17.70
2022-09-06T16:39:46.428Z,17.70
2022-09-06T16:42:16.131Z,17.60
2022-09-06T16:44:43.811Z,17.50
2022-09-06T16:47:18.116Z,17.50
2022-09-06T16:49:45.666Z,17.50
2022-09-06T16:52:13.380Z,17.40
2022-09-06T16:54:45.602Z,17.30
2022-09-06T16:57:15.297Z,17.20
2022-09-06T16:59:47.055Z,17.20
2022-09-06T17:02:22.018Z,17.10
2022-09-06T17:04:50.061Z,17.00
2022-09-06T17:07:24.853Z,17.00
2022-09-06T17:09:56.653Z,16.80
2022-09-06T17:12:26.492Z,16.80
2022-09-06T17:14:53.784Z,16.70
2022-09-06T17:17:23.153Z,16.70
2022-09-06T17:19:50.896Z,16.60
2022-09-06T17:22:18.270Z,16.50
2022-09-06T17:24:45.364Z,16.50
2022-09-06T17:27:13.053Z,16.40
2022-09-06T17:29:42.693Z,16.40
2022-09-06T17:32:12.027Z,16.30
2022-09-06T17:34:40.370Z,16.30
2022-09-06T17:37:11.364Z,16.20
2022-09-06T17:39:39.001Z,16.20
2022-09-06T17:42:08.865Z,16.10
2022-09-06T17:44:36.400Z,16.10
2022-09-06T17:47:13.335Z,16.00
2022-09-06T17:49:42.499Z,16.10
2022-09-06T17:52:14.716Z,16.00
2022-09-06T17:54:42.031Z,16.00
2022-09-06T17:57:11.691Z,15.90
2022-09-06T17:59:41.116Z,15.90
2022-09-06T18:02:08.877Z,15.80
2022-09-06T18:04:36.715Z,15.80
2022-09-06T18:07:04.180Z,15.70
2022-09-06T18:09:34.421Z,15.60
2022-09-06T18:12:01.982Z,15.60
2022-09-06T18:14:29.463Z,15.60
2022-09-06T18:17:04.860Z,15.50
2022-09-06T18:19:32.247Z,15.50
2022-09-06T18:21:59.796Z,15.50
2022-09-06T18:24:29.374Z,15.40
2022-09-06T18:26:56.953Z,15.40
2022-09-06T18:29:26.620Z,15.30
2022-09-06T18:31:54.158Z,15.30
2022-09-06T18:34:26.461Z,15.30
2022-09-06T18:36:56.338Z,15.20
2022-09-06T18:39:23.778Z,15.20
2022-09-06T18:42:00.354Z,15.20
2022-09-06T18:44:32.900Z,15.10
2022-09-06T18:47:12.202Z,15.10
2022-09-06T18:49:43.758Z,15.10
2022-09-06T18:52:11.677Z,15.10
2022-09-06T18:54:43.796Z,15.10
2022-09-06T18:57:11.666Z,15.10
2022-09-06T18:59:39.259Z,15.10
2022-09-06T19:02:09.089Z,15.10
2022-09-06T19:04:40.720Z,15.10
2022-09-06T19:07:10.955Z,15.10
2022-09-06T19:09:41.604Z,15.00
2022-09-06T19:12:11.999Z,15.10
2022-09-06T19:14:44.913Z,15.10
2022-09-06T19:17:12.857Z,15.00
2022-09-06T19:19:45.840Z,14.90
2022-09-06T19:22:17.503Z,15.00
2022-09-06T19:24:50.935Z,15.00
2022-09-06T19:27:21.823Z,15.00
2022-09-06T19:29:52.201Z,14.90
2022-09-06T19:32:22.467Z,14.90
2022-09-06T19:34:53.774Z,14.90
2022-09-06T19:37:23.925Z,14.90
2022-09-06T19:39:54.240Z,14.80
2022-09-06T19:42:22.318Z,14.80
2022-09-06T19:44:52.267Z,14.80
2022-09-06T19:47:27.522Z,14.80
2022-09-06T19:49:57.572Z,14.80
2022-09-06T19:52:25.471Z,14.70
2022-09-06T19:54:53.178Z,14.70
2022-09-06T19:57:20.735Z,14.70
2022-09-06T19:59:48.615Z,14.70
2022-09-06T20:02:16.163Z,14.70
2022-09-06T20:04:50.421Z,14.70
2022-09-06T20:07:29.125Z,14.60
2022-09-06T20:09:59.239Z,14.60
2022-09-06T20:12:29.995Z,14.60
2022-09-06T20:14:58.307Z,14.60
2022-09-06T20:17:33.696Z,14.50
2022-09-06T20:20:02.946Z,14.50
2022-09-06T20:22:31.204Z,14.50
2022-09-06T20:25:03.234Z,14.40
2022-09-06T20:27:31.852Z,14.40
2022-09-06T20:30:02.068Z,14.30
2022-09-06T20:32:32.537Z,14.30
2022-09-06T20:35:02.909Z,14.30
2022-09-06T20:37:33.296Z,14.20
2022-09-06T20:40:04.829Z,14.20
2022-09-06T20:42:35.278Z,14.20
2022-09-06T20:45:05.109Z,14.10
2022-09-06T20:47:32.852Z,14.10
2022-09-06T20:50:02.828Z,14.10
2022-09-06T20:52:35.426Z,14.10
2022-09-06T20:55:04.179Z,14.10
2022-09-06T20:57:31.955Z,14.10
2022-09-06T21:00:00.128Z,14.00
2022-09-06T21:02:28.431Z,14.00
2022-09-06T21:04:56.518Z,14.00
2022-09-06T21:07:24.042Z,14.00
2022-09-06T21:09:51.688Z,13.90
2022-09-06T21:12:19.121Z,13.90
2022-09-06T21:14:46.320Z,13.90
2022-09-06T21:17:13.679Z,13.80
2022-09-06T21:19:45.360Z,13.80
2022-09-06T21:22:15.732Z,13.70
2022-09-06T21:24:52.339Z,13.80
2022-09-06T21:27:28.026Z,13.70
2022-09-06T21:29:59.004Z,13.70
2022-09-06T21:32:37.398Z,13.60
2022-09-06T21:35:11.299Z,13.60
2022-09-06T21:37:41.663Z,13.60
2022-09-06T21:40:15.703Z,13.60
2022-09-06T21:42:48.070Z,13.60
2022-09-06T21:45:16.545Z,13.50
2022-09-06T21:47:50.576Z,13.50
2022-09-06T21:50:18.989Z,13.50
2022-09-06T21:52:52.215Z,13.50
2022-09-06T21:55:23.163Z,13.40
2022-09-06T21:57:59.177Z,13.40
2022-09-06T22:00:33.227Z,13.40
2022-09-06T22:03:06.676Z,13.40
2022-09-06T22:05:38.788Z,13.30
2022-09-06T22:08:14.399Z,13.30
2022-09-06T22:10:55.350Z,13.30
2022-09-06T22:13:26.580Z,13.30
2022-09-06T22:16:07.540Z,13.20
2022-09-06T22:18:40.280Z,13.20
2022-09-06T22:21:18.578Z,13.20
2022-09-06T22:24:02.687Z,13.10
2022-09-06T22:26:34.884Z,13.10
2022-09-06T22:29:04.856Z,13.00
2022-09-06T22:31:36.522Z,13.00
2022-09-06T22:34:04.620Z,13.00
2022-09-06T22:36:32.429Z,12.90
2022-09-06T22:39:00.105Z,12.90
2022-09-06T22:41:30.056Z,12.90
2022-09-06T22:44:00.548Z,12.90
2022-09-06T22:46:29.302Z,12.80
2022-09-06T22:48:59.805Z,12.80
2022-09-06T22:51:27.265Z,12.70
2022-09-06T22:53:55.134Z,12.80
2022-09-06T22:56:24.828Z,12.80
2022-09-06T22:58:54.508Z,12.70
2022-09-06T23:01:24.402Z,12.70
2022-09-06T23:03:54.222Z,12.70
2022-09-06T23:06:22.193Z,12.70
2022-09-06T23:08:49.876Z,12.60
2022-09-06T23:11:19.626Z,12.60
2022-09-06T23:13:56.539Z,12.60
2022-09-06T23:16:24.182Z,12.60
2022-09-06T23:18:54.714Z,12.60
2022-09-06T23:21:24.095Z,12.60
2022-09-06T23:23:56.396Z,12.50
2022-09-06T23:26:28.531Z,12.50
2022-09-06T23:28:58.615Z,12.50
2022-09-06T23:31:31.509Z,12.40
2022-09-06T23:34:01.046Z,12.40
2022-09-06T23:36:28.812Z,12.40
2022-09-06T23:38:56.465Z,12.40
2022-09-06T23:41:24.871Z,12.30
2022-09-06T23:43:52.138Z,12.30
2022-09-06T23:46:22.043Z,12.30
2022-09-06T23:48:49.645Z,12.20
2022-09-06T23:51:19.263Z,12.20
2022-09-06T23:53:46.782Z,12.20
2022-09-06T23:56:14.539Z,12.20
2022-09-06T23:58:46.675Z,12.20
